sensor_id;sensor_type;location;lat;lon;timestamp;pressure;altitude;pressure_sealevel;temperature;humidity
50250;BME280;36133;42.522;27.456;2022-11-11T00:03:24;102470.84;;;10.09;72.01
50250;BME280;36133;42.522;27.456;2022-11-11T00:05:49;102488.28;;;10.05;72.26
50250;BME280;36133;42.522;27.456;2022-11-11T00:08:17;102479.94;;;10.08;72.23
50250;BME280;36133;42.522;27.456;2022-11-11T00:14:25;102491.34;;;9.52;73.80
50250;BME280;36133;42.522;27.456;2022-11-11T00:16:51;102486.44;;;9.76;73.18
50250;BME280;36133;42.522;27.456;2022-11-11T00:19:35;102444.63;;;9.51;73.58
50250;BME280;36133;42.522;27.456;2022-11-11T00:22:21;102464.09;;;9.64;73.82
50250;BME280;36133;42.522;27.456;2022-11-11T00:28:18;102460.25;;;9.48;73.97
50250;BME280;36133;42.522;27.456;2022-11-11T00:30:44;102497.41;;;9.44;73.94
50250;BME280;36133;42.522;27.456;2022-11-11T00:33:09;102319.09;;;8.59;73.05
50250;BME280;36133;42.522;27.456;2022-11-11T00:42:34;102315.03;;;9.14;70.38
50250;BME280;36133;42.522;27.456;2022-11-11T00:45:00;102480.50;;;10.21;70.14
50250;BME280;36133;42.522;27.456;2022-11-11T00:47:26;102371.69;;;9.53;69.76
50250;BME280;36133;42.522;27.456;2022-11-11T00:50:32;102208.34;;;8.33;70.29
50250;BME280;36133;42.522;27.456;2022-11-11T00:53:51;102477.34;;;9.87;71.51
50250;BME280;36133;42.522;27.456;2022-11-11T01:06:14;102466.84;;;8.94;74.04
50250;BME280;36133;42.522;27.456;2022-11-11T01:12:35;102464.56;;;8.89;73.83
50250;BME280;36133;42.522;27.456;2022-11-11T01:15:01;102445.94;;;8.76;75.58
50250;BME280;36133;42.522;27.456;2022-11-11T01:17:28;102446.28;;;9.23;74.77
50250;BME280;36133;42.522;27.456;2022-11-11T01:20:08;102461.16;;;9.27;75.40
50250;BME280;36133;42.522;27.456;2022-11-11T01:26:09;102406.22;;;9.09;74.20
50250;BME280;36133;42.522;27.456;2022-11-11T01:32:16;102242.56;;;8.21;74.57
50250;BME280;36133;42.522;27.456;2022-11-11T01:34:42;102464.19;;;9.34;75.46
50250;BME280;36133;42.522;27.456;2022-11-11T01:37:07;102430.16;;;9.52;75.21
50250;BME280;36133;42.522;27.456;2022-11-11T01:39:33;102418.06;;;9.37;74.78
50250;BME280;36133;42.522;27.456;2022-11-11T01:48:50;102435.00;;;9.49;73.85
50250;BME280;36133;42.522;27.456;2022-11-11T01:58:50;102460.72;;;9.72;73.83
50250;BME280;36133;42.522;27.456;2022-11-11T02:05:02;102464.78;;;9.47;73.35
50250;BME280;36133;42.522;27.456;2022-11-11T02:14:56;102468.56;;;9.94;70.61
50250;BME280;36133;42.522;27.456;2022-11-11T02:21:04;102471.19;;;9.16;73.26
50250;BME280;36133;42.522;27.456;2022-11-11T02:27:09;102437.06;;;9.26;73.32
50250;BME280;36133;42.522;27.456;2022-11-11T02:33:13;102330.25;;;8.23;73.98
50250;BME280;36133;42.522;27.456;2022-11-11T02:46:44;102452.78;;;9.21;73.85
50250;BME280;36133;42.522;27.456;2022-11-11T02:52:31;102246.91;;;7.82;74.39
50250;BME280;36133;42.522;27.456;2022-11-11T02:58:37;102464.63;;;8.99;74.56
50250;BME280;36133;42.522;27.456;2022-11-11T03:04:25;102480.41;;;8.82;77.46
50250;BME280;36133;42.522;27.456;2022-11-11T03:06:51;102437.19;;;8.94;76.44
50250;BME280;36133;42.522;27.456;2022-11-11T03:09:16;102340.34;;;8.31;76.19
50250;BME280;36133;42.522;27.456;2022-11-11T03:11:42;102479.00;;;9.19;76.75
50250;BME280;36133;42.522;27.456;2022-11-11T05:51:43;102413.84;;;8.43;73.58
50250;BME280;36133;42.522;27.456;2022-11-11T05:54:15;102568.19;;;9.36;74.02
50250;BME280;36133;42.522;27.456;2022-11-11T05:56:41;102359.41;;;8.39;73.28
50250;BME280;36133;42.522;27.456;2022-11-11T05:59:07;102551.13;;;9.66;72.96
50250;BME280;36133;42.522;27.456;2022-11-11T06:01:54;102569.63;;;9.81;72.82
50250;BME280;36133;42.522;27.456;2022-11-11T06:04:22;102499.22;;;9.84;72.46
50250;BME280;36133;42.522;27.456;2022-11-11T06:06:48;102414.53;;;9.36;71.53
50250;BME280;36133;42.522;27.456;2022-11-11T06:09:13;102525.94;;;10.16;70.71
50250;BME280;36133;42.522;27.456;2022-11-11T06:11:50;102544.72;;;10.75;70.19
50250;BME280;36133;42.522;27.456;2022-11-11T06:14:18;102557.53;;;10.93;70.19
50250;BME280;36133;42.522;27.456;2022-11-11T06:16:43;102550.97;;;10.95;69.47
50250;BME280;36133;42.522;27.456;2022-11-11T06:19:09;102568.63;;;11.36;67.49
50250;BME280;36133;42.522;27.456;2022-11-11T06:21:50;102573.84;;;11.85;67.23
50250;BME280;36133;42.522;27.456;2022-11-11T06:24:24;102575.00;;;11.82;67.26
50250;BME280;36133;42.522;27.456;2022-11-11T06:26:50;102356.34;;;10.31;66.68
50250;BME280;36133;42.522;27.456;2022-11-11T06:29:15;102356.50;;;10.00;67.61
50250;BME280;36133;42.522;27.456;2022-11-11T06:31:45;102587.19;;;11.59;66.91
50250;BME280;36133;42.522;27.456;2022-11-11T06:34:11;102541.69;;;11.72;65.27
50250;BME280;36133;42.522;27.456;2022-11-11T06:36:36;102580.97;;;12.84;63.99
50250;BME280;36133;42.522;27.456;2022-11-11T06:39:02;102580.16;;;12.92;63.97
50250;BME280;36133;42.522;27.456;2022-11-11T06:41:27;102568.47;;;13.43;61.90
50250;BME280;36133;42.522;27.456;2022-11-11T06:43:53;102578.75;;;11.99;64.49
50250;BME280;36133;42.522;27.456;2022-11-11T06:46:23;102549.78;;;11.17;67.85
50250;BME280;36133;42.522;27.456;2022-11-11T06:48:51;102482.38;;;11.06;66.44
50250;BME280;36133;42.522;27.456;2022-11-11T06:54:50;102598.97;;;11.30;68.97
50250;BME280;36133;42.522;27.456;2022-11-11T07:00:41;102526.88;;;12.39;64.25
50250;BME280;36133;42.522;27.456;2022-11-11T07:03:10;102566.03;;;13.06;61.92
50250;BME280;36133;42.522;27.456;2022-11-11T07:05:36;102543.06;;;12.93;63.21
50250;BME280;36133;42.522;27.456;2022-11-11T07:08:32;102592.66;;;12.85;62.80
50250;BME280;36133;42.522;27.456;2022-11-11T07:14:27;102591.13;;;13.26;62.60
50250;BME280;36133;42.522;27.456;2022-11-11T07:20:26;102575.59;;;13.70;60.68
50250;BME280;36133;42.522;27.456;2022-11-11T07:26:13;102564.28;;;13.83;59.59
50250;BME280;36133;42.522;27.456;2022-11-11T07:28:38;102521.47;;;14.52;57.95
50250;BME280;36133;42.522;27.456;2022-11-11T07:31:04;102576.13;;;15.22;57.15
50250;BME280;36133;42.522;27.456;2022-11-11T07:33:29;102562.41;;;14.91;57.67
50250;BME280;36133;42.522;27.456;2022-11-11T07:35:55;102527.16;;;14.16;58.50
50250;BME280;36133;42.522;27.456;2022-11-11T07:38:20;102489.88;;;13.60;59.70
50250;BME280;36133;42.522;27.456;2022-11-11T07:40:46;102560.72;;;13.91;60.41
50250;BME280;36133;42.522;27.456;2022-11-11T07:43:12;102593.00;;;14.44;59.72
50250;BME280;36133;42.522;27.456;2022-11-11T07:45:37;102405.44;;;14.36;57.63
50250;BME280;36133;42.522;27.456;2022-11-11T07:48:03;102500.97;;;15.68;55.27
50250;BME280;36133;42.522;27.456;2022-11-11T07:50:29;102385.47;;;14.92;54.16
50250;BME280;36133;42.522;27.456;2022-11-11T07:52:54;102559.78;;;16.17;53.56
50250;BME280;36133;42.522;27.456;2022-11-11T07:55:20;102541.88;;;16.68;52.52
50250;BME280;36133;42.522;27.456;2022-11-11T07:57:46;102545.78;;;16.65;52.83
50250;BME280;36133;42.522;27.456;2022-11-11T08:00:12;102572.97;;;17.78;51.44
50250;BME280;36133;42.522;27.456;2022-11-11T08:02:37;102566.78;;;17.70;50.56
50250;BME280;36133;42.522;27.456;2022-11-11T08:05:03;102363.53;;;16.02;51.76
50250;BME280;36133;42.522;27.456;2022-11-11T08:07:28;102576.53;;;17.35;51.90
50250;BME280;36133;42.522;27.456;2022-11-11T08:09:54;102575.88;;;17.77;50.36
50250;BME280;36133;42.522;27.456;2022-11-11T08:12:20;102549.88;;;18.17;48.46
50250;BME280;36133;42.522;27.456;2022-11-11T08:15:04;102580.28;;;17.93;48.81
50250;BME280;36133;42.522;27.456;2022-11-11T08:17:30;102507.81;;;17.16;50.13
50250;BME280;36133;42.522;27.456;2022-11-11T08:19:55;102481.84;;;17.86;48.28
50250;BME280;36133;42.522;27.456;2022-11-11T08:22:21;102508.47;;;17.48;49.89
50250;BME280;36133;42.522;27.456;2022-11-11T08:24:49;102500.16;;;17.41;50.25
50250;BME280;36133;42.522;27.456;2022-11-11T08:27:26;102410.31;;;17.10;49.59
50250;BME280;36133;42.522;27.456;2022-11-11T08:29:52;102225.78;;;16.44;48.05
50250;BME280;36133;42.522;27.456;2022-11-11T08:32:17;102392.78;;;16.23;51.00
50250;BME280;36133;42.522;27.456;2022-11-11T08:34:43;102610.81;;;17.52;51.08
50250;BME280;36133;42.522;27.456;2022-11-11T08:37:12;102145.84;;;16.07;48.40
50250;BME280;36133;42.522;27.456;2022-11-11T08:39:38;102322.84;;;17.76;47.56
50250;BME280;36133;42.522;27.456;2022-11-11T08:42:03;102208.66;;;17.93;45.76
50250;BME280;36133;42.522;27.456;2022-11-11T08:44:32;102423.78;;;19.58;44.59
50250;BME280;36133;42.522;27.456;2022-11-11T08:46:57;102423.91;;;20.05;43.93
50250;BME280;36133;42.522;27.456;2022-11-11T08:49:24;102588.31;;;21.65;42.80
50250;BME280;36133;42.522;27.456;2022-11-11T08:51:50;102381.91;;;19.84;44.01
50250;BME280;36133;42.522;27.456;2022-11-11T08:54:15;102322.97;;;19.27;44.62
50250;BME280;36133;42.522;27.456;2022-11-11T08:56:41;102499.44;;;21.06;42.77
50250;BME280;36133;42.522;27.456;2022-11-11T08:59:10;102310.22;;;20.07;42.47
50250;BME280;36133;42.522;27.456;2022-11-11T09:01:36;102488.13;;;22.06;40.31
50250;BME280;36133;42.522;27.456;2022-11-11T09:04:02;102400.91;;;20.59;42.57
50250;BME280;36133;42.522;27.456;2022-11-11T09:06:28;102300.44;;;19.32;43.45
50250;BME280;36133;42.522;27.456;2022-11-11T09:08:54;102538.97;;;21.25;42.61
50250;BME280;36133;42.522;27.456;2022-11-11T09:11:19;102412.94;;;20.11;43.21
50250;BME280;36133;42.522;27.456;2022-11-11T09:13:48;102141.34;;;18.87;42.71
50250;BME280;36133;42.522;27.456;2022-11-11T09:16:16;102371.25;;;21.52;40.35
50250;BME280;36133;42.522;27.456;2022-11-11T09:18:42;102151.72;;;21.12;39.00
50250;BME280;36133;42.522;27.456;2022-11-11T09:21:11;102125.41;;;20.22;39.74
50250;BME280;36133;42.522;27.456;2022-11-11T09:23:36;102133.94;;;20.00;40.03
50250;BME280;36133;42.522;27.456;2022-11-11T09:26:02;102296.94;;;19.98;41.91
50250;BME280;36133;42.522;27.456;2022-11-11T09:28:30;102353.22;;;20.53;41.71
50250;BME280;36133;42.522;27.456;2022-11-11T09:31:01;102300.97;;;21.31;40.07
50250;BME280;36133;42.522;27.456;2022-11-11T09:33:27;102563.81;;;23.28;39.38
50250;BME280;36133;42.522;27.456;2022-11-11T09:35:53;102330.22;;;20.61;41.19
50250;BME280;36133;42.522;27.456;2022-11-11T09:38:18;102186.50;;;19.57;41.80
50250;BME280;36133;42.522;27.456;2022-11-11T09:43:57;102546.66;;;25.53;35.48
50250;BME280;36133;42.522;27.456;2022-11-11T09:52:13;102558.66;;;24.05;37.17
50250;BME280;36133;42.522;27.456;2022-11-11T09:57:14;102354.53;;;21.85;39.36
50250;BME280;36133;42.522;27.456;2022-11-11T09:59:48;102537.69;;;22.31;40.48
50250;BME280;36133;42.522;27.456;2022-11-11T10:02:28;102290.31;;;21.48;39.81
50250;BME280;36133;42.522;27.456;2022-11-11T10:05:08;102480.41;;;22.71;39.41
50250;BME280;36133;42.522;27.456;2022-11-11T10:07:54;102458.38;;;22.71;39.39
50250;BME280;36133;42.522;27.456;2022-11-11T10:10:46;102551.50;;;22.56;40.52
50250;BME280;36133;42.522;27.456;2022-11-11T10:13:19;102505.91;;;22.35;40.43
50250;BME280;36133;42.522;27.456;2022-11-11T10:15:56;102551.72;;;22.54;40.57
50250;BME280;36133;42.522;27.456;2022-11-11T10:21:23;102373.28;;;20.47;42.69
50250;BME280;36133;42.522;27.456;2022-11-11T10:23:54;102539.81;;;22.29;41.51
50250;BME280;36133;42.522;27.456;2022-11-11T10:26:38;102143.72;;;19.03;42.92
50250;BME280;36133;42.522;27.456;2022-11-11T10:29:20;102265.13;;;18.83;44.77
50250;BME280;36133;42.522;27.456;2022-11-11T10:32:14;102543.03;;;21.74;42.84
50250;BME280;36133;42.522;27.456;2022-11-11T10:34:41;102281.50;;;19.50;44.01
50250;BME280;36133;42.522;27.456;2022-11-11T10:37:22;102380.44;;;19.88;44.33
50250;BME280;36133;42.522;27.456;2022-11-11T10:42:46;102051.81;;;18.41;43.29
50250;BME280;36133;42.522;27.456;2022-11-11T10:48:08;102350.72;;;20.18;43.59
50250;BME280;36133;42.522;27.456;2022-11-11T10:50:38;102343.31;;;19.66;44.71
50250;BME280;36133;42.522;27.456;2022-11-11T10:56:08;102025.47;;;18.27;43.77
50250;BME280;36133;42.522;27.456;2022-11-11T10:58:47;102367.38;;;20.50;43.20
50250;BME280;36133;42.522;27.456;2022-11-11T11:01:16;102519.16;;;21.68;42.59
50250;BME280;36133;42.522;27.456;2022-11-11T11:03:56;102265.31;;;20.80;41.27
50250;BME280;36133;42.522;27.456;2022-11-11T11:06:29;102502.47;;;23.32;39.30
50250;BME280;36133;42.522;27.456;2022-11-11T11:11:55;102524.91;;;23.18;39.96
50250;BME280;36133;42.522;27.456;2022-11-11T11:14:38;102479.69;;;22.57;40.40
50250;BME280;36133;42.522;27.456;2022-11-11T11:17:28;102512.91;;;21.48;42.96
50250;BME280;36133;42.522;27.456;2022-11-11T11:20:12;102353.53;;;20.96;42.34
50250;BME280;36133;42.522;27.456;2022-11-11T11:22:55;102474.19;;;22.32;41.16
50250;BME280;36133;42.522;27.456;2022-11-11T11:25:25;102406.34;;;21.88;41.13
50250;BME280;36133;42.522;27.456;2022-11-11T11:28:07;102366.78;;;22.82;38.56
50250;BME280;36133;42.522;27.456;2022-11-11T11:30:34;102450.72;;;23.34;38.98
50250;BME280;36133;42.522;27.456;2022-11-11T11:33:02;102199.06;;;20.76;40.48
50250;BME280;36133;42.522;27.456;2022-11-11T11:38:09;102385.13;;;21.19;41.96
50250;BME280;36133;42.522;27.456;2022-11-11T11:40:59;102394.59;;;20.65;42.75
50250;BME280;36133;42.522;27.456;2022-11-11T11:43:33;102278.81;;;20.03;43.15
50250;BME280;36133;42.522;27.456;2022-11-11T11:46:02;102499.63;;;21.25;43.23
50250;BME280;36133;42.522;27.456;2022-11-11T12:03:01;102397.31;;;20.05;44.19
50250;BME280;36133;42.522;27.456;2022-11-11T12:08:46;102506.19;;;21.30;43.07
50250;BME280;36133;42.522;27.456;2022-11-11T12:20:07;102291.91;;;19.75;43.96
50250;BME280;36133;42.522;27.456;2022-11-11T12:23:23;102077.63;;;18.26;43.87
50250;BME280;36133;42.522;27.456;2022-11-11T12:31:56;102059.41;;;17.92;44.97
50250;BME280;36133;42.522;27.456;2022-11-11T12:35:14;102178.03;;;18.45;45.21
50250;BME280;36133;42.522;27.456;2022-11-11T12:48:55;102162.88;;;19.23;44.27
50250;BME280;36133;42.522;27.456;2022-11-11T12:51:46;102371.22;;;19.35;46.10
50250;BME280;36133;42.522;27.456;2022-11-11T13:00:18;102477.13;;;19.56;46.41
50250;BME280;36133;42.522;27.456;2022-11-11T13:08:48;102475.19;;;18.31;48.83
50250;BME280;36133;42.522;27.456;2022-11-11T13:11:35;102498.16;;;18.86;48.02
50250;BME280;36133;42.522;27.456;2022-11-11T13:16:39;102483.84;;;18.63;47.85
50250;BME280;36133;42.522;27.456;2022-11-11T13:19:30;102516.81;;;18.76;47.69
50250;BME280;36133;42.522;27.456;2022-11-11T13:22:02;102481.00;;;18.28;48.36
50250;BME280;36133;42.522;27.456;2022-11-11T13:24:32;102466.00;;;17.96;48.73
50250;BME280;36133;42.522;27.456;2022-11-11T13:27:48;102507.78;;;18.33;48.68
50250;BME280;36133;42.522;27.456;2022-11-11T13:32:39;102510.41;;;18.05;49.36
50250;BME280;36133;42.522;27.456;2022-11-11T13:37:56;102506.19;;;18.02;49.52
50250;BME280;36133;42.522;27.456;2022-11-11T13:40:41;102493.47;;;17.58;50.23
50250;BME280;36133;42.522;27.456;2022-11-11T13:43:27;102539.78;;;17.67;50.50
50250;BME280;36133;42.522;27.456;2022-11-11T13:45:57;102487.06;;;17.51;50.45
50250;BME280;36133;42.522;27.456;2022-11-11T13:48:37;102186.44;;;15.49;50.40
50250;BME280;36133;42.522;27.456;2022-11-11T13:51:13;102300.34;;;16.36;50.39
50250;BME280;36133;42.522;27.456;2022-11-11T13:53:45;102501.13;;;17.34;51.30
50250;BME280;36133;42.522;27.456;2022-11-11T13:56:25;102027.03;;;14.65;51.13
50250;BME280;36133;42.522;27.456;2022-11-11T13:58:53;102445.88;;;17.17;51.59
50250;BME280;36133;42.522;27.456;2022-11-11T14:01:20;102311.94;;;15.63;53.19
50250;BME280;36133;42.522;27.456;2022-11-11T14:11:38;102456.06;;;15.64;55.43
50250;BME280;36133;42.522;27.456;2022-11-11T14:17:01;102446.59;;;16.06;55.26
50250;BME280;36133;42.522;27.456;2022-11-11T14:19:29;102003.50;;;13.33;55.03
50250;BME280;36133;42.522;27.456;2022-11-11T14:25:26;102106.72;;;14.34;54.35
50250;BME280;36133;42.522;27.456;2022-11-11T14:27:53;102497.69;;;16.50;55.18
50250;BME280;36133;42.522;27.456;2022-11-11T14:30:48;102343.50;;;15.72;55.14
50250;BME280;36133;42.522;27.456;2022-11-11T14:39:31;102574.22;;;16.71;55.15
50250;BME280;36133;42.522;27.456;2022-11-11T14:42:00;102576.81;;;17.40;53.34
50250;BME280;36133;42.522;27.456;2022-11-11T14:49:55;102287.44;;;14.14;57.66
50250;BME280;36133;42.522;27.456;2022-11-11T14:52:42;102135.78;;;13.87;56.22
50250;BME280;36133;42.522;27.456;2022-11-11T14:58:20;102043.00;;;13.28;56.30
50250;BME280;36133;42.522;27.456;2022-11-11T15:00:49;102413.81;;;14.90;58.12
50250;BME280;36133;42.522;27.456;2022-11-11T15:03:41;102571.53;;;15.31;60.22
50250;BME280;36133;42.522;27.456;2022-11-11T15:06:34;102591.09;;;15.90;59.45
50250;BME280;36133;42.522;27.456;2022-11-11T15:15:40;102494.44;;;14.34;62.54
50250;BME280;36133;42.522;27.456;2022-11-11T15:21:23;102362.69;;;13.81;61.55
50250;BME280;36133;42.522;27.456;2022-11-11T15:24:21;102428.69;;;14.79;59.91
50250;BME280;36133;42.522;27.456;2022-11-11T15:30:16;102480.66;;;14.19;62.25
50250;BME280;36133;42.522;27.456;2022-11-11T15:38:28;102242.59;;;14.26;58.77
50250;BME280;36133;42.522;27.456;2022-11-11T15:41:24;102359.69;;;14.64;60.34
50250;BME280;36133;42.522;27.456;2022-11-11T15:43:52;102428.19;;;14.27;61.91
50250;BME280;36133;42.522;27.456;2022-11-11T15:46:34;102502.25;;;14.70;63.03
50250;BME280;36133;42.522;27.456;2022-11-11T15:49:00;102326.13;;;13.27;64.32
50250;BME280;36133;42.522;27.456;2022-11-11T15:51:41;102543.22;;;14.84;64.10
50250;BME280;36133;42.522;27.456;2022-11-11T15:54:21;102484.09;;;14.70;63.67
50250;BME280;36133;42.522;27.456;2022-11-11T15:56:47;102379.38;;;12.94;67.07
50250;BME280;36133;42.522;27.456;2022-11-11T15:59:30;102516.41;;;13.90;67.31
50250;BME280;36133;42.522;27.456;2022-11-11T16:02:08;102425.00;;;12.98;68.96
50250;BME280;36133;42.522;27.456;2022-11-11T16:05:02;102510.44;;;13.78;67.55
50250;BME280;36133;42.522;27.456;2022-11-11T16:07:49;102639.94;;;14.20;67.82
50250;BME280;36133;42.522;27.456;2022-11-11T16:12:54;102634.72;;;14.35;67.94
50250;BME280;36133;42.522;27.456;2022-11-11T16:21:07;102616.97;;;14.57;66.97
50250;BME280;36133;42.522;27.456;2022-11-11T16:23:42;102639.91;;;14.54;67.75
50250;BME280;36133;42.522;27.456;2022-11-11T16:26:33;102648.91;;;14.55;67.96
50250;BME280;36133;42.522;27.456;2022-11-11T16:29:26;102639.56;;;14.57;67.45
50250;BME280;36133;42.522;27.456;2022-11-11T16:35:27;102387.41;;;13.45;67.32
50250;BME280;36133;42.522;27.456;2022-11-11T16:37:54;102452.97;;;13.83;66.37
50250;BME280;36133;42.522;27.456;2022-11-11T16:40:34;102660.47;;;14.57;67.90
50250;BME280;36133;42.522;27.456;2022-11-11T16:48:51;102511.31;;;13.37;69.01
50250;BME280;36133;42.522;27.456;2022-11-11T16:51:41;102659.31;;;15.16;65.43
50250;BME280;36133;42.522;27.456;2022-11-11T16:58:12;102666.28;;;14.78;67.24
50250;BME280;36133;42.522;27.456;2022-11-11T17:00:49;102502.94;;;14.72;64.06
50250;BME280;36133;42.522;27.456;2022-11-11T17:03:29;102669.44;;;15.88;63.84
50250;BME280;36133;42.522;27.456;2022-11-11T17:06:15;102553.75;;;14.71;64.60
50250;BME280;36133;42.522;27.456;2022-11-11T17:09:20;102640.78;;;15.04;64.76
50250;BME280;36133;42.522;27.456;2022-11-11T17:12:10;102672.25;;;15.06;65.06
50250;BME280;36133;42.522;27.456;2022-11-11T17:14:50;102670.00;;;15.02;65.61
50250;BME280;36133;42.522;27.456;2022-11-11T17:17:22;102675.63;;;15.24;64.77
50250;BME280;36133;42.522;27.456;2022-11-11T17:23:21;102470.16;;;14.32;64.23
50250;BME280;36133;42.522;27.456;2022-11-11T17:29:47;102311.97;;;12.99;65.33
50250;BME280;36133;42.522;27.456;2022-11-11T17:36:46;102668.97;;;15.76;63.98
50250;BME280;36133;42.522;27.456;2022-11-11T17:43:25;102443.84;;;14.49;63.88
50250;BME280;36133;42.522;27.456;2022-11-11T17:51:21;102666.50;;;16.67;61.95
50250;BME280;36133;42.522;27.456;2022-11-11T17:53:19;102400.53;;;14.56;63.10
50250;BME280;36133;42.522;27.456;2022-11-11T17:55:44;102359.75;;;14.56;62.53
50250;BME280;36133;42.522;27.456;2022-11-11T17:58:10;102454.31;;;14.77;64.33
50250;BME280;36133;42.522;27.456;2022-11-11T18:00:38;102414.72;;;14.74;63.05
50250;BME280;36133;42.522;27.456;2022-11-11T18:03:05;102437.16;;;14.76;63.26
50250;BME280;36133;42.522;27.456;2022-11-11T18:05:34;102558.97;;;15.21;64.96
50250;BME280;36133;42.522;27.456;2022-11-11T18:08:00;102187.41;;;12.97;63.83
50250;BME280;36133;42.522;27.456;2022-11-11T18:10:27;102587.72;;;15.88;63.04
50250;BME280;36133;42.522;27.456;2022-11-11T18:12:55;102228.94;;;13.14;63.75
50250;BME280;36133;42.522;27.456;2022-11-11T18:15:21;102509.78;;;15.31;63.57
50250;BME280;36133;42.522;27.456;2022-11-11T18:17:46;102664.91;;;16.42;62.57
50250;BME280;36133;42.522;27.456;2022-11-11T18:20:12;102534.88;;;16.20;61.02
50250;BME280;36133;42.522;27.456;2022-11-11T18:22:38;102381.88;;;15.31;60.61
50250;BME280;36133;42.522;27.456;2022-11-11T18:25:04;102561.03;;;16.60;60.16
50250;BME280;36133;42.522;27.456;2022-11-11T18:27:29;102526.84;;;16.26;60.61
50250;BME280;36133;42.522;27.456;2022-11-11T18:29:55;102313.00;;;14.52;61.48
50250;BME280;36133;42.522;27.456;2022-11-11T18:32:20;102663.34;;;16.79;61.49
50250;BME280;36133;42.522;27.456;2022-11-11T18:34:46;102528.16;;;16.07;60.79
50250;BME280;36133;42.522;27.456;2022-11-11T18:37:11;102462.69;;;15.93;60.11
50250;BME280;36133;42.522;27.456;2022-11-11T18:39:37;102498.19;;;16.30;59.17
50250;BME280;36133;42.522;27.456;2022-11-11T18:42:02;102683.25;;;17.10;60.05
50250;BME280;36133;42.522;27.456;2022-11-11T18:44:28;102668.03;;;16.62;60.82
50250;BME280;36133;42.522;27.456;2022-11-11T18:46:53;102670.13;;;17.06;59.33
50250;BME280;36133;42.522;27.456;2022-11-11T18:49:19;102688.09;;;17.00;59.38
50250;BME280;36133;42.522;27.456;2022-11-11T18:51:45;102697.78;;;16.80;60.34
50250;BME280;36133;42.522;27.456;2022-11-11T18:54:11;102692.81;;;16.83;60.35
50250;BME280;36133;42.522;27.456;2022-11-11T18:56:37;102665.28;;;16.70;60.19
50250;BME280;36133;42.522;27.456;2022-11-11T18:59:06;102679.84;;;17.08;59.23
50250;BME280;36133;42.522;27.456;2022-11-11T19:01:37;102659.16;;;17.14;58.95
50250;BME280;36133;42.522;27.456;2022-11-11T19:04:09;102520.69;;;15.78;60.24
50250;BME280;36133;42.522;27.456;2022-11-11T19:06:36;102646.22;;;16.31;60.63
50250;BME280;36133;42.522;27.456;2022-11-11T19:09:08;102658.56;;;16.81;59.97
50250;BME280;36133;42.522;27.456;2022-11-11T19:11:35;102691.16;;;17.20;59.43
50250;BME280;36133;42.522;27.456;2022-11-11T19:14:03;102697.13;;;16.78;60.92
50250;BME280;36133;42.522;27.456;2022-11-11T19:16:29;102672.94;;;16.04;62.77
50250;BME280;36133;42.522;27.456;2022-11-11T19:18:57;102700.25;;;15.72;64.29
50250;BME280;36133;42.522;27.456;2022-11-11T19:21:24;102524.31;;;14.26;65.81
50250;BME280;36133;42.522;27.456;2022-11-11T19:23:52;102704.03;;;15.30;66.65
50250;BME280;36133;42.522;27.456;2022-11-11T19:26:18;102663.38;;;14.96;66.78
50250;BME280;36133;42.522;27.456;2022-11-11T19:28:44;102654.88;;;14.99;66.53
50250;BME280;36133;42.522;27.456;2022-11-11T19:31:11;102707.56;;;15.88;64.74
50250;BME280;36133;42.522;27.456;2022-11-11T19:33:38;102703.25;;;16.40;63.17
50250;BME280;36133;42.522;27.456;2022-11-11T19:36:07;102668.28;;;15.58;65.21
50250;BME280;36133;42.522;27.456;2022-11-11T19:38:33;102706.25;;;15.18;66.43
50250;BME280;36133;42.522;27.456;2022-11-11T19:41:05;102701.75;;;16.38;62.97
50250;BME280;36133;42.522;27.456;2022-11-11T19:43:30;102705.41;;;15.67;63.53
50250;BME280;36133;42.522;27.456;2022-11-11T19:45:58;102453.16;;;14.63;63.57
50250;BME280;36133;42.522;27.456;2022-11-11T19:48:24;102708.47;;;16.89;61.49
50250;BME280;36133;42.522;27.456;2022-11-11T19:50:50;102668.91;;;16.23;62.19
50250;BME280;36133;42.522;27.456;2022-11-11T19:53:15;102715.41;;;15.01;66.48
50250;BME280;36133;42.522;27.456;2022-11-11T19:55:41;102684.84;;;16.03;62.78
50250;BME280;36133;42.522;27.456;2022-11-11T19:58:07;102695.75;;;16.42;62.26
50250;BME280;36133;42.522;27.456;2022-11-11T20:00:33;102688.34;;;15.57;64.09
50250;BME280;36133;42.522;27.456;2022-11-11T20:03:01;102663.56;;;16.07;62.19
50250;BME280;36133;42.522;27.456;2022-11-11T20:05:26;102652.66;;;15.11;64.66
50250;BME280;36133;42.522;27.456;2022-11-11T20:07:55;102715.56;;;15.89;63.53
50250;BME280;36133;42.522;27.456;2022-11-11T20:10:21;102593.91;;;15.49;62.47
50250;BME280;36133;42.522;27.456;2022-11-11T20:12:49;102716.44;;;15.00;65.79
50250;BME280;36133;42.522;27.456;2022-11-11T20:15:14;102698.78;;;15.29;64.93
50250;BME280;36133;42.522;27.456;2022-11-11T20:17:40;102706.06;;;15.77;63.91
50250;BME280;36133;42.522;27.456;2022-11-11T20:20:06;102607.22;;;15.44;62.65
50250;BME280;36133;42.522;27.456;2022-11-11T20:22:32;102698.47;;;16.11;61.21
50250;BME280;36133;42.522;27.456;2022-11-11T20:24:57;102690.88;;;15.91;61.88
50250;BME280;36133;42.522;27.456;2022-11-11T20:27:23;102620.91;;;15.83;61.47
50250;BME280;36133;42.522;27.456;2022-11-11T20:29:48;102715.94;;;15.37;63.15
50250;BME280;36133;42.522;27.456;2022-11-11T20:32:15;102700.09;;;16.21;60.90
50250;BME280;36133;42.522;27.456;2022-11-11T20:34:40;102723.94;;;16.27;61.13